Time;durP1;ratioP1;P1;durP2;ratioP2;P2;SDS_P1;SDS_P2;PMS_P1;PMS_P2;Temp;Humidity;BMP_temperature;BMP_pressure;BME280_temperature;BME280_humidity;BME280_pressure;Samples;Min_cycle;Max_cycle;Signal;HPM_P1;HPM_P2
2022/11/02 00:01:25;;;;;;;10.77;3.10;;;11.30;78.40;;;;;;5026537;28;20259;-91
2022/11/02 00:03:51;;;;;;;13.40;2.90;;;11.30;78.60;;;;;;5025094;28;20160;-91
2022/11/02 00:06:17;;;;;;;18.73;3.70;;;11.30;78.80;;;;;;5023861;28;20169;-91
2022/11/02 00:08:44;;;;;;;11.17;3.13;;;11.30;78.90;;;;;;5024278;28;20180;-91
2022/11/02 00:11:10;;;;;;;10.60;3.17;;;11.20;79.10;;;;;;5024086;28;20738;-91
2022/11/02 00:13:35;;;;;;;7.67;2.80;;;11.20;78.90;;;;;;5026579;28;20201;-91
2022/11/02 00:16:08;;;;;;;11.60;2.93;;;11.20;79.00;;;;;;5024710;28;20258;-91
2022/11/02 00:18:35;;;;;;;10.17;3.03;;;11.30;79.10;;;;;;5024096;28;20181;-91
2022/11/02 00:21:02;;;;;;;7.77;2.90;;;11.30;79.10;;;;;;5023349;28;20255;-91
2022/11/02 00:23:28;;;;;;;12.43;2.83;;;11.30;79.20;;;;;;5024987;28;20270;-91
2022/11/02 00:25:55;;;;;;;15.27;2.60;;;11.30;79.20;;;;;;5025386;28;20658;-91
2022/11/02 00:28:21;;;;;;;10.03;2.70;;;11.30;79.20;;;;;;5022028;28;20303;-90
2022/11/02 00:30:47;;;;;;;14.83;3.60;;;11.30;79.00;;;;;;5020874;28;20654;-91
2022/11/02 00:33:13;;;;;;;8.13;2.50;;;11.40;78.60;;;;;;5021532;28;20228;-91
2022/11/02 00:35:43;;;;;;;12.50;3.13;;;11.40;78.70;;;;;;5022202;28;20287;-90
2022/11/02 00:38:09;;;;;;;16.23;3.73;;;11.40;79.00;;;;;;5020795;28;20168;-91
2022/11/02 00:40:35;;;;;;;12.37;2.80;;;11.30;79.30;;;;;;5021572;28;20177;-90
2022/11/02 00:43:01;;;;;;;10.67;2.93;;;11.30;79.60;;;;;;5021173;28;20270;-92
2022/11/02 00:45:27;;;;;;;10.43;3.77;;;11.20;79.90;;;;;;5021098;28;20716;-91
2022/11/02 00:47:52;;;;;;;13.23;3.93;;;11.20;80.10;;;;;;5022493;28;20176;-91
2022/11/02 00:50:22;;;;;;;14.03;3.20;;;11.10;80.30;;;;;;5020979;28;20319;-91
2022/11/02 00:52:52;;;;;;;11.40;3.17;;;11.10;80.40;;;;;;5021809;28;20192;-91
2022/11/02 00:55:20;;;;;;;12.57;3.13;;;11.00;80.50;;;;;;5022188;28;20204;-91
2022/11/02 00:57:46;;;;;;;12.97;3.23;;;11.00;80.70;;;;;;5005170;28;20562;-91
2022/11/02 01:00:13;;;;;;;10.87;3.20;;;11.00;80.70;;;;;;5021164;28;20180;-91
2022/11/02 01:02:40;;;;;;;15.07;3.00;;;10.90;80.90;;;;;;5038719;28;20220;-92
2022/11/02 01:05:07;;;;;;;10.00;2.93;;;11.00;80.90;;;;;;5020606;28;20180;-90
2022/11/02 01:07:36;;;;;;;10.87;2.97;;;10.90;81.00;;;;;;5022148;28;20595;-90
2022/11/02 01:10:03;;;;;;;13.83;3.20;;;11.00;81.00;;;;;;5022448;28;20176;-90
2022/11/02 01:12:28;;;;;;;13.03;3.43;;;11.00;81.00;;;;;;5020896;28;20200;-90
2022/11/02 01:14:54;;;;;;;13.37;3.20;;;11.00;81.00;;;;;;5020949;28;20254;-90
2022/11/02 01:17:20;;;;;;;14.70;3.30;;;11.00;80.90;;;;;;5020686;28;20177;-90
2022/11/02 01:19:46;;;;;;;8.97;3.00;;;11.00;80.90;;;;;;5020353;28;20172;-91
2022/11/02 01:22:11;;;;;;;12.70;3.17;;;11.00;80.80;;;;;;5021460;28;20223;-90
2022/11/02 01:24:37;;;;;;;9.97;3.63;;;11.00;80.90;;;;;;5021901;28;20177;-90
2022/11/02 01:27:03;;;;;;;10.43;3.57;;;11.00;81.10;;;;;;5022074;28;20244;-91
2022/11/02 01:29:28;;;;;;;18.57;4.53;;;11.00;81.10;;;;;;5022661;28;20670;-90
2022/11/02 01:31:54;;;;;;;10.53;3.20;;;11.00;80.90;;;;;;5023106;28;20223;-90
2022/11/02 01:34:20;;;;;;;13.03;3.90;;;11.00;81.00;;;;;;5027070;28;20176;-91
2022/11/02 01:36:46;;;;;;;12.30;3.47;;;11.00;81.20;;;;;;5026452;28;20678;-91
2022/11/02 01:39:13;;;;;;;14.87;3.07;;;11.00;81.20;;;;;;5090155;23;20287;-91
2022/11/02 01:41:39;;;;;;;16.57;3.77;;;11.00;81.20;;;;;;5040203;28;20208;-91
2022/11/02 01:44:24;;;;;;;16.43;3.47;;;11.00;81.20;;;;;;5034641;28;20186;-90
2022/11/02 01:46:52;;;;;;;13.90;2.73;;;11.00;81.30;;;;;;5025521;28;20174;-91
2022/11/02 01:49:20;;;;;;;14.70;3.20;;;11.00;81.20;;;;;;5028761;28;20259;-91
2022/11/02 01:51:58;;;;;;;12.13;3.67;;;11.00;81.20;;;;;;5028669;28;20218;-91
2022/11/02 01:54:28;;;;;;;13.07;4.17;;;11.00;81.20;;;;;;5034972;28;20174;-91
2022/11/02 01:57:01;;;;;;;9.33;3.17;;;11.00;81.10;;;;;;5035922;28;20184;-91
2022/11/02 01:59:32;;;;;;;10.17;2.80;;;11.00;81.20;;;;;;5035834;28;20176;-91
2022/11/02 02:01:57;;;;;;;8.37;2.60;;;11.00;81.40;;;;;;5029872;28;20197;-91
2022/11/02 02:04:24;;;;;;;13.60;3.30;;;11.00;81.40;;;;;;5035329;28;20177;-91
2022/11/02 02:06:51;;;;;;;13.77;3.17;;;11.00;81.20;;;;;;5034572;28;20209;-91
2022/11/02 02:09:18;;;;;;;10.50;2.50;;;11.10;81.30;;;;;;5032881;28;20185;-91
2022/11/02 02:11:43;;;;;;;10.23;2.50;;;11.00;81.40;;;;;;5031781;28;20207;-91
2022/11/02 02:14:14;;;;;;;9.67;3.07;;;11.00;81.50;;;;;;5030237;28;20205;-91
2022/11/02 02:16:59;;;;;;;12.53;2.93;;;11.00;81.70;;;;;;5033310;28;20201;-91
2022/11/02 02:19:43;;;;;;;7.07;2.57;;;11.00;82.10;;;;;;5035894;28;20176;-91
2022/11/02 02:22:27;;;;;;;11.80;3.00;;;11.00;82.60;;;;;;5031751;28;20205;-91
2022/11/02 02:25:22;;;;;;;9.57;2.70;;;10.90;83.40;;;;;;5039099;28;20196;-92
2022/11/02 02:28:18;;;;;;;18.47;3.17;;;10.80;84.20;;;;;;5037963;28;20165;-92
2022/11/02 02:30:55;;;;;;;8.17;3.10;;;10.70;84.60;;;;;;5038710;28;20180;-91
2022/11/02 02:33:55;;;;;;;8.53;2.53;;;10.70;85.00;;;;;;5040576;28;20173;-92
2022/11/02 02:36:41;;;;;;;12.37;2.83;;;10.70;85.40;;;;;;5040771;28;20200;-92
2022/11/02 02:39:43;;;;;;;13.00;3.07;;;10.60;85.80;;;;;;5040588;28;20177;-94
2022/11/02 02:42:56;;;;;;;14.40;3.10;;;10.70;85.80;;;;;;5004862;28;20256;-93
2022/11/02 02:45:33;;;;;;;14.90;3.50;;;10.70;86.10;;;;;;5019306;28;20197;-94
2022/11/02 02:48:14;;;;;;;11.90;2.93;;;10.60;86.00;;;;;;5040504;28;20165;-92
2022/11/02 02:50:49;;;;;;;19.17;3.17;;;10.70;85.70;;;;;;5040580;28;20158;-92
2022/11/02 02:53:30;;;;;;;10.50;2.80;;;10.70;85.70;;;;;;5040574;28;20192;-94
2022/11/02 02:56:04;;;;;;;17.70;3.70;;;10.70;85.60;;;;;;5040717;28;20216;-94
2022/11/02 02:58:47;;;;;;;14.60;3.10;;;10.70;85.60;;;;;;5040876;28;20209;-93
2022/11/02 03:01:20;;;;;;;14.90;3.37;;;10.80;85.50;;;;;;5040190;28;20157;-92
2022/11/02 03:03:49;;;;;;;9.13;2.30;;;10.80;85.30;;;;;;5040546;28;20157;-91
2022/11/02 03:06:27;;;;;;;11.93;3.27;;;10.70;85.10;;;;;;5040239;28;20165;-91
2022/11/02 03:09:25;;;;;;;12.33;3.50;;;10.80;85.20;;;;;;5040494;28;20221;-94
2022/11/02 03:11:57;;;;;;;10.60;2.77;;;10.80;85.00;;;;;;5022504;28;20228;-91
2022/11/02 03:14:56;;;;;;;11.83;2.83;;;10.80;85.00;;;;;;5039614;28;20189;-92
2022/11/02 03:17:45;;;;;;;19.37;3.50;;;10.90;84.50;;;;;;5040368;28;20171;-94
2022/11/02 03:20:18;;;;;;;14.27;3.10;;;10.90;84.40;;;;;;5040445;28;20160;-92
2022/11/02 03:23:11;;;;;;;11.67;2.77;;;10.90;84.20;;;;;;5040195;28;20193;-93
2022/11/02 03:26:02;;;;;;;14.83;3.77;;;10.90;84.20;;;;;;5039283;28;20268;-93
2022/11/02 03:28:31;;;;;;;16.50;3.07;;;10.90;84.20;;;;;;5039812;28;20177;-91
2022/11/02 03:31:17;;;;;;;17.83;3.63;;;10.90;84.20;;;;;;5039866;28;20177;-94
2022/11/02 03:33:57;;;;;;;15.93;3.40;;;10.90;84.00;;;;;;5040113;28;20245;-91
2022/11/02 03:36:32;;;;;;;9.60;2.90;;;11.00;84.00;;;;;;5039546;28;20224;-91
2022/11/02 03:39:11;;;;;;;16.63;3.20;;;11.10;83.50;;;;;;5038109;28;20169;-91
2022/11/02 03:41:41;;;;;;;11.53;2.93;;;11.20;83.50;;;;;;5038830;28;20212;-91
2022/11/02 03:44:17;;;;;;;17.63;3.07;;;11.20;83.70;;;;;;5039190;28;20153;-94
2022/11/02 03:46:44;;;;;;;13.20;3.27;;;11.30;83.00;;;;;;5039709;28;20228;-92
2022/11/02 03:49:13;;;;;;;12.77;3.07;;;11.30;83.20;;;;;;5039166;28;20165;-93
2022/11/02 03:51:45;;;;;;;13.20;3.70;;;11.20;83.60;;;;;;5039279;28;20189;-93
2022/11/02 03:55:03;;;;;;;20.60;3.00;;;11.20;83.60;;;;;;5039218;28;20157;-91
2022/11/02 03:57:40;;;;;;;15.03;3.07;;;11.10;83.90;;;;;;4985761;28;20185;-92
2022/11/02 04:00:11;;;;;;;12.70;3.20;;;11.10;84.20;;;;;;5038677;28;20181;-91
2022/11/02 04:02:41;;;;;;;14.03;2.87;;;11.10;84.30;;;;;;5037740;28;20257;-92
2022/11/02 04:05:09;;;;;;;16.80;3.13;;;11.20;83.90;;;;;;5037338;28;20184;-91
2022/11/02 04:10:22;;;;;;;12.13;2.77;;;11.60;81.90;;;;;;5036595;28;20181;-92
2022/11/02 04:15:39;;;;;;;9.57;2.70;;;11.70;81.30;;;;;;5011108;28;20220;-92
2022/11/02 04:20:50;;;;;;;14.27;2.93;;;11.70;81.00;;;;;;5035241;28;20168;-90
2022/11/02 04:26:00;;;;;;;16.43;3.33;;;11.80;81.00;;;;;;5038553;28;20149;-91
2022/11/02 04:28:26;;;;;;;16.70;3.40;;;11.80;80.70;;;;;;5038816;28;20170;-92
2022/11/02 04:30:52;;;;;;;16.87;3.10;;;11.80;81.00;;;;;;5037940;28;20185;-92
2022/11/02 04:33:33;;;;;;;13.40;3.33;;;11.80;81.40;;;;;;5036807;28;20205;-91
2022/11/02 04:36:03;;;;;;;14.30;2.93;;;11.80;81.50;;;;;;5035487;28;20269;-91
2022/11/02 04:38:42;;;;;;;15.87;2.50;;;11.90;81.10;;;;;;5034453;28;20177;-91
2022/11/02 04:44:14;;;;;;;21.20;3.10;;;11.90;81.20;;;;;;4974036;29;20242;-91
2022/11/02 04:46:41;;;;;;;7.30;2.83;;;11.80;81.60;;;;;;5015279;28;20190;-90
2022/11/02 04:49:08;;;;;;;7.17;2.43;;;11.90;81.40;;;;;;5029904;28;20158;-91
2022/11/02 04:51:34;;;;;;;14.60;3.40;;;11.90;81.40;;;;;;5031813;28;20197;-90
2022/11/02 04:53:59;;;;;;;20.53;3.43;;;11.80;81.80;;;;;;5028899;28;20225;-90
2022/11/02 04:56:26;;;;;;;6.93;2.13;;;11.90;81.70;;;;;;5031180;28;20209;-91
2022/11/02 04:58:54;;;;;;;8.83;2.53;;;11.90;81.70;;;;;;5032567;28;20177;-90
2022/11/02 05:01:24;;;;;;;14.93;3.30;;;11.80;81.80;;;;;;5031868;28;20193;-90
2022/11/02 05:03:52;;;;;;;13.37;2.73;;;11.80;82.00;;;;;;5030195;28;20177;-91
2022/11/02 05:06:19;;;;;;;11.90;2.70;;;12.00;81.50;;;;;;5030228;28;20185;-90
2022/11/02 05:08:44;;;;;;;10.00;2.37;;;12.00;81.80;;;;;;5033286;28;20169;-90
2022/11/02 05:11:11;;;;;;;8.50;2.73;;;11.80;82.40;;;;;;5032858;28;20185;-90
2022/11/02 05:13:38;;;;;;;5.90;2.37;;;11.90;81.90;;;;;;5030313;28;20208;-90
2022/11/02 05:16:04;;;;;;;9.77;2.53;;;12.00;81.60;;;;;;5030219;28;20205;-90
2022/11/02 05:18:30;;;;;;;8.23;2.63;;;12.00;81.10;;;;;;5030066;28;20173;-91
2022/11/02 05:20:58;;;;;;;10.93;2.27;;;11.90;81.60;;;;;;5030885;28;20272;-92
2022/11/02 05:23:24;;;;;;;12.97;2.80;;;11.90;81.60;;;;;;5031548;28;20181;-91
2022/11/02 05:26:01;;;;;;;14.97;3.90;;;11.80;82.20;;;;;;5035041;28;20181;-92
2022/11/02 05:28:28;;;;;;;13.57;3.00;;;11.80;82.40;;;;;;5032909;28;20208;-91
2022/11/02 05:30:54;;;;;;;13.90;3.03;;;11.80;82.30;;;;;;5034982;28;20428;-92
2022/11/02 05:33:20;;;;;;;12.23;2.70;;;11.80;82.80;;;;;;5032138;28;20184;-91
2022/11/02 05:35:46;;;;;;;8.93;2.20;;;11.80;82.50;;;;;;5033836;28;20201;-91
2022/11/02 05:38:12;;;;;;;12.33;2.57;;;11.80;83.00;;;;;;5031066;28;20180;-91
2022/11/02 05:40:39;;;;;;;11.97;3.40;;;11.70;83.40;;;;;;5033242;28;20193;-91
2022/11/02 05:43:07;;;;;;;7.23;2.20;;;11.70;83.70;;;;;;5032556;28;20189;-90
2022/11/02 05:45:33;;;;;;;11.07;3.03;;;11.60;84.10;;;;;;5033524;28;20185;-91
2022/11/02 05:48:00;;;;;;;11.97;3.23;;;11.50;84.00;;;;;;5035585;28;20225;-92
2022/11/02 05:50:26;;;;;;;12.57;3.00;;;11.60;84.10;;;;;;5036069;28;20228;-90
2022/11/02 05:52:51;;;;;;;13.13;2.57;;;11.50;84.10;;;;;;5036221;28;20198;-91
2022/11/02 05:55:17;;;;;;;15.60;2.50;;;11.60;84.20;;;;;;5036583;28;20300;-91
2022/11/02 05:57:43;;;;;;;12.37;2.80;;;11.50;84.40;;;;;;5035770;28;20189;-91
2022/11/02 06:00:10;;;;;;;11.30;2.97;;;11.50;84.20;;;;;;5035929;28;20177;-90
2022/11/02 06:02:36;;;;;;;15.57;4.03;;;11.50;84.20;;;;;;5034959;28;20212;-91
2022/11/02 06:05:02;;;;;;;11.17;2.67;;;11.40;84.30;;;;;;5031823;28;20257;-91
2022/11/02 06:07:28;;;;;;;16.27;3.10;;;11.70;83.00;;;;;;5031457;28;20177;-91
2022/11/02 06:09:53;;;;;;;11.77;3.30;;;11.70;82.80;;;;;;5031317;28;20197;-91
2022/11/02 06:12:19;;;;;;;10.43;2.53;;;11.60;82.80;;;;;;5034905;28;20186;-91
2022/11/02 06:14:44;;;;;;;10.67;2.70;;;11.60;82.70;;;;;;5025556;28;20541;-90
2022/11/02 06:17:10;;;;;;;12.87;2.43;;;11.60;82.40;;;;;;5028658;28;20166;-91
2022/11/02 06:19:36;;;;;;;8.13;2.30;;;11.60;82.30;;;;;;5039280;28;20181;-91
2022/11/02 06:22:01;;;;;;;8.30;2.40;;;11.50;82.60;;;;;;5037615;28;20599;-91
2022/11/02 06:24:27;;;;;;;7.57;2.67;;;11.50;82.40;;;;;;5037559;28;20192;-91
2022/11/02 06:26:52;;;;;;;11.60;3.00;;;11.50;82.40;;;;;;5037942;28;20188;-90
2022/11/02 06:29:18;;;;;;;15.20;2.50;;;11.50;82.20;;;;;;5038707;28;20257;-91
2022/11/02 06:31:43;;;;;;;6.87;2.47;;;11.40;82.40;;;;;;5039730;28;20208;-92
2022/11/02 06:34:09;;;;;;;9.07;2.33;;;11.30;82.40;;;;;;5038486;28;20169;-90
2022/11/02 06:36:34;;;;;;;7.37;2.40;;;11.40;81.80;;;;;;5035782;28;20208;-90
2022/11/02 06:39:00;;;;;;;8.53;2.17;;;11.60;81.10;;;;;;5037687;28;20173;-90
2022/11/02 06:41:26;;;;;;;7.13;2.23;;;11.50;81.40;;;;;;5039032;28;20185;-90
2022/11/02 06:43:51;;;;;;;9.57;2.37;;;11.40;81.80;;;;;;5038148;28;20248;-91
2022/11/02 06:46:17;;;;;;;3.30;1.80;;;11.40;81.90;;;;;;5038705;28;20182;-91
2022/11/02 06:48:46;;;;;;;10.43;2.03;;;11.40;81.90;;;;;;5035807;28;20177;-90
2022/11/02 06:51:11;;;;;;;9.33;2.17;;;11.50;81.70;;;;;;5035002;28;20185;-90
2022/11/02 06:53:37;;;;;;;6.33;1.90;;;11.40;81.70;;;;;;5036762;28;20161;-90
2022/11/02 06:56:03;;;;;;;7.83;2.07;;;11.40;82.20;;;;;;5035743;28;20212;-90
2022/11/02 06:58:28;;;;;;;5.87;2.20;;;11.30;82.50;;;;;;5034971;28;20204;-90
2022/11/02 07:01:00;;;;;;;4.27;1.60;;;11.40;82.40;;;;;;5036233;28;20185;-90
2022/11/02 07:03:26;;;;;;;5.07;2.10;;;11.30;82.70;;;;;;5024638;28;20177;-88
2022/11/02 07:05:52;;;;;;;4.30;2.17;;;11.30;82.90;;;;;;5022240;28;20205;-89
2022/11/02 07:08:18;;;;;;;8.53;2.47;;;11.30;83.10;;;;;;5021342;28;20185;-88
2022/11/02 07:10:44;;;;;;;3.67;1.90;;;11.20;83.40;;;;;;5018984;28;20185;-89
2022/11/02 07:13:10;;;;;;;8.23;2.10;;;11.20;83.50;;;;;;5025408;28;20209;-90
2022/11/02 07:15:36;;;;;;;11.77;3.13;;;11.20;83.60;;;;;;5033391;28;20265;-91
2022/11/02 07:18:02;;;;;;;8.57;3.03;;;11.20;84.10;;;;;;5031022;28;20655;-90
2022/11/02 07:20:29;;;;;;;7.20;2.53;;;11.30;84.10;;;;;;5026484;28;20180;-88
2022/11/02 07:22:56;;;;;;;13.20;2.87;;;11.30;84.40;;;;;;5025150;28;20284;-90
2022/11/02 07:25:24;;;;;;;6.17;2.00;;;11.30;84.60;;;;;;5024605;28;20178;-90
2022/11/02 07:27:49;;;;;;;10.20;2.30;;;11.30;84.20;;;;;;5025336;28;20204;-91
2022/11/02 07:30:15;;;;;;;6.77;2.20;;;11.30;84.40;;;;;;5029219;28;20193;-90
2022/11/02 07:32:42;;;;;;;6.83;2.50;;;11.30;84.70;;;;;;5031759;28;20686;-91
2022/11/02 07:35:10;;;;;;;5.47;1.93;;;11.30;84.70;;;;;;5019388;28;20235;-91
2022/11/02 07:37:35;;;;;;;13.17;2.80;;;11.40;84.00;;;;;;5017075;28;20181;-91
2022/11/02 07:40:02;;;;;;;6.67;2.27;;;11.40;84.30;;;;;;5024746;28;20265;-92
2022/11/02 07:42:28;;;;;;;9.20;3.00;;;11.50;84.00;;;;;;5025246;28;20209;-92
2022/11/02 07:44:53;;;;;;;10.83;2.67;;;11.60;83.90;;;;;;5024170;28;20655;-92
2022/11/02 07:47:19;;;;;;;5.30;1.87;;;11.60;83.60;;;;;;5022347;28;20166;-92
2022/11/02 07:49:44;;;;;;;10.93;3.57;;;11.70;82.80;;;;;;5024830;28;20177;-89
2022/11/02 07:52:10;;;;;;;4.43;2.17;;;11.70;83.30;;;;;;5022470;28;20742;-91
2022/11/02 07:54:38;;;;;;;7.03;2.10;;;11.80;83.50;;;;;;5023546;28;20364;-91
2022/11/02 07:57:04;;;;;;;8.47;2.30;;;11.80;83.50;;;;;;5023498;28;20213;-92
2022/11/02 07:59:29;;;;;;;10.07;2.63;;;11.80;83.10;;;;;;5022075;28;20190;-92
2022/11/02 08:01:55;;;;;;;12.50;3.37;;;11.90;83.10;;;;;;5022181;28;20672;-92
2022/11/02 08:04:20;;;;;;;17.10;2.33;;;11.90;82.30;;;;;;5023712;28;20323;-92
2022/11/02 08:06:46;;;;;;;12.43;3.13;;;11.90;82.90;;;;;;5023829;28;20181;-91
2022/11/02 08:09:11;;;;;;;13.43;3.07;;;11.90;83.00;;;;;;5024246;28;20177;-92
2022/11/02 08:11:37;;;;;;;9.10;2.47;;;12.00;83.10;;;;;;5025256;28;20189;-92
2022/11/02 08:14:03;;;;;;;7.83;2.33;;;11.90;83.10;;;;;;5024474;28;20203;-92
2022/11/02 08:16:28;;;;;;;8.87;2.53;;;12.00;82.30;;;;;;5025434;28;20548;-92
2022/11/02 08:18:54;;;;;;;12.10;4.23;;;12.00;82.50;;;;;;5022529;28;20178;-92
2022/11/02 08:21:20;;;;;;;7.47;2.27;;;12.20;82.20;;;;;;5022000;28;20197;-92
2022/11/02 08:23:45;;;;;;;5.53;2.27;;;12.30;81.70;;;;;;5022579;28;20180;-91
2022/11/02 08:26:11;;;;;;;12.43;3.50;;;12.40;81.70;;;;;;5017372;28;20200;-91
2022/11/02 08:28:39;;;;;;;9.67;2.70;;;12.40;81.40;;;;;;5018013;28;20184;-92
2022/11/02 08:31:06;;;;;;;12.07;3.73;;;12.40;81.50;;;;;;5017289;28;20185;-92
2022/11/02 08:33:32;;;;;;;10.53;2.87;;;12.40;81.30;;;;;;5017700;28;20195;-92
2022/11/02 08:36:04;;;;;;;18.73;3.20;;;12.40;81.60;;;;;;5017894;28;20205;-91
2022/11/02 08:38:30;;;;;;;13.23;2.07;;;12.40;81.00;;;;;;5015858;28;20203;-91
2022/11/02 08:40:56;;;;;;;13.67;2.37;;;12.50;79.90;;;;;;5015869;28;20181;-92
2022/11/02 08:43:22;;;;;;;10.40;2.80;;;12.50;80.50;;;;;;5017222;28;20184;-91
2022/11/02 08:45:47;;;;;;;6.93;1.90;;;12.50;80.40;;;;;;5015155;28;20173;-90
2022/11/02 08:48:13;;;;;;;7.33;2.03;;;12.50;80.60;;;;;;5013080;28;20185;-90
2022/11/02 08:50:42;;;;;;;7.73;2.40;;;12.40;80.80;;;;;;5014692;28;20177;-91
2022/11/02 08:53:08;;;;;;;14.80;2.43;;;12.50;81.00;;;;;;5019694;28;20240;-92
2022/11/02 08:55:34;;;;;;;12.63;3.30;;;12.40;80.80;;;;;;5018402;28;20201;-91
2022/11/02 08:58:00;;;;;;;11.17;2.60;;;12.50;79.60;;;;;;5017743;28;20174;-91
2022/11/02 09:00:29;;;;;;;16.43;3.00;;;12.50;79.40;;;;;;5018744;28;20181;-92
2022/11/02 09:03:04;;;;;;;8.63;2.70;;;12.50;80.00;;;;;;5019111;28;20208;-92
2022/11/02 09:05:32;;;;;;;4.97;2.13;;;12.50;80.00;;;;;;5018465;28;20207;-93
2022/11/02 09:08:00;;;;;;;11.17;2.43;;;12.40;79.90;;;;;;5017123;28;20181;-92
2022/11/02 09:10:28;;;;;;;12.67;3.50;;;12.50;80.30;;;;;;5015399;28;20181;-90
2022/11/02 09:12:57;;;;;;;10.43;2.87;;;12.60;80.20;;;;;;5014711;28;20287;-92
2022/11/02 09:15:22;;;;;;;16.20;3.50;;;12.50;79.40;;;;;;5015712;28;20197;-92
2022/11/02 09:17:48;;;;;;;13.40;2.73;;;12.60;79.70;;;;;;5014573;28;20188;-91
2022/11/02 09:20:16;;;;;;;13.60;2.80;;;12.70;79.00;;;;;;5015604;28;20185;-92
2022/11/02 09:22:42;;;;;;;15.80;3.10;;;12.70;79.60;;;;;;5015358;28;20639;-91
2022/11/02 09:25:08;;;;;;;9.47;2.93;;;12.70;79.90;;;;;;5015657;28;20178;-92
2022/11/02 09:27:34;;;;;;;5.87;2.57;;;12.70;79.60;;;;;;5018723;28;20181;-91
2022/11/02 09:30:00;;;;;;;13.20;3.30;;;12.70;79.90;;;;;;5026986;28;20189;-91
2022/11/02 09:32:26;;;;;;;14.93;2.70;;;12.70;79.60;;;;;;5030503;28;20204;-90
2022/11/02 09:34:51;;;;;;;4.30;1.90;;;12.60;79.60;;;;;;5027813;28;20189;-92
2022/11/02 09:37:17;;;;;;;4.73;3.07;;;12.60;80.30;;;;;;5018660;28;20590;-89
2022/11/02 09:39:42;;;;;;;16.20;2.97;;;12.60;79.70;;;;;;5017443;28;20694;-89
2022/11/02 09:42:34;;;;;;;14.97;4.30;;;12.70;79.70;;;;;;5014943;28;20271;-89
2022/11/02 09:45:01;;;;;;;16.43;3.87;;;12.70;78.90;;;;;;5014170;28;20169;-90
2022/11/02 09:47:30;;;;;;;9.43;2.13;;;12.60;80.60;;;;;;5013545;28;20174;-89
2022/11/02 09:50:00;;;;;;;12.50;2.50;;;12.50;80.30;;;;;;5017036;28;20209;-90
2022/11/02 09:52:37;;;;;;;11.87;3.07;;;12.70;79.80;;;;;;5019809;28;20193;-92
2022/11/02 09:55:09;;;;;;;6.63;2.10;;;12.80;79.40;;;;;;5025864;28;20212;-91
2022/11/02 09:57:37;;;;;;;8.33;2.10;;;12.90;78.30;;;;;;5029241;28;20264;-91
2022/11/02 10:00:03;;;;;;;14.10;3.07;;;13.00;78.00;;;;;;5033391;28;20231;-92
2022/11/02 10:03:00;;;;;;;9.63;2.20;;;13.00;78.40;;;;;;5032649;28;20197;-93
2022/11/02 10:05:45;;;;;;;10.77;2.57;;;12.90;78.20;;;;;;5031936;28;20662;-92
2022/11/02 10:08:33;;;;;;;7.10;2.17;;;12.70;77.70;;;;;;5033162;28;20181;-92
2022/11/02 10:11:26;;;;;;;8.57;2.53;;;12.70;78.10;;;;;;5031376;28;20227;-91
2022/11/02 10:14:09;;;;;;;12.50;2.43;;;12.60;78.70;;;;;;5020696;28;20177;-90
2022/11/02 10:16:46;;;;;;;13.83;2.37;;;12.60;78.60;;;;;;5020885;28;20212;-91
2022/11/02 10:19:16;;;;;;;10.57;2.27;;;13.00;79.20;;;;;;5019682;28;20166;-90
2022/11/02 10:21:45;;;;;;;16.23;2.47;;;13.10;78.50;;;;;;5019245;28;20197;-91
2022/11/02 10:24:23;;;;;;;7.53;2.40;;;13.20;77.70;;;;;;5023542;28;20177;-90
2022/11/02 10:26:49;;;;;;;11.43;2.17;;;13.30;77.50;;;;;;5026437;28;20180;-91
2022/11/02 10:29:29;;;;;;;11.27;3.07;;;13.50;77.40;;;;;;5021848;28;20272;-90
2022/11/02 10:31:54;;;;;;;6.93;2.40;;;13.40;76.90;;;;;;5018619;28;20236;-89
2022/11/02 10:34:24;;;;;;;5.13;1.90;;;13.40;77.00;;;;;;5022521;28;20660;-90
2022/11/02 10:37:16;;;;;;;7.27;2.23;;;13.30;77.70;;;;;;5021426;28;20208;-90
2022/11/02 10:40:04;;;;;;;12.47;3.13;;;13.20;78.00;;;;;;5027103;28;20197;-92
2022/11/02 10:43:07;;;;;;;6.77;2.47;;;12.90;79.10;;;;;;5027216;28;20564;-90
2022/11/02 10:45:32;;;;;;;14.27;2.73;;;12.70;80.20;;;;;;5020388;28;20643;-90
2022/11/02 10:48:06;;;;;;;6.33;2.20;;;12.50;81.30;;;;;;5018364;28;20281;-89
2022/11/02 10:50:53;;;;;;;15.70;2.67;;;12.90;81.80;;;;;;5021687;28;20189;-91
2022/11/02 10:53:20;;;;;;;10.97;2.50;;;13.00;78.90;;;;;;5028377;28;20197;-91
2022/11/02 10:56:01;;;;;;;3.50;1.63;;;13.20;79.40;;;;;;5024134;28;20259;-91
2022/11/02 10:58:31;;;;;;;8.97;2.87;;;13.00;77.00;;;;;;5019847;28;20260;-92
2022/11/02 11:01:11;;;;;;;10.00;2.40;;;13.00;77.30;;;;;;5019620;28;20173;-92
2022/11/02 11:03:54;;;;;;;11.00;2.20;;;13.00;78.20;;;;;;5019276;28;20185;-91
2022/11/02 11:06:21;;;;;;;4.60;1.77;;;13.00;77.70;;;;;;5021128;28;20254;-92
2022/11/02 11:08:50;;;;;;;9.50;2.33;;;13.10;77.50;;;;;;5020759;28;20181;-91
2022/11/02 11:11:34;;;;;;;12.10;2.93;;;13.20;76.90;;;;;;5021046;28;20205;-91
2022/11/02 11:14:12;;;;;;;4.73;1.93;;;13.10;75.90;;;;;;5018918;28;20185;-91
2022/11/02 11:16:44;;;;;;;7.73;2.20;;;13.30;75.30;;;;;;5018882;28;20208;-91
2022/11/02 11:19:38;;;;;;;3.80;1.40;;;13.70;75.60;;;;;;5020752;28;20173;-92
2022/11/02 11:22:29;;;;;;;5.03;1.93;;;13.50;75.20;;;;;;5018628;28;20201;-91
2022/11/02 11:25:22;;;;;;;13.87;2.73;;;13.30;76.50;;;;;;5018247;28;20252;-91
2022/11/02 11:27:49;;;;;;;4.03;1.70;;;13.30;76.70;;;;;;5019647;28;20621;-92
2022/11/02 11:30:28;;;;;;;4.80;2.30;;;13.30;77.40;;;;;;5020693;28;20180;-90
2022/11/02 11:32:56;;;;;;;9.27;2.50;;;13.30;76.80;;;;;;5019926;28;20251;-91
2022/11/02 11:35:23;;;;;;;7.20;1.70;;;13.60;78.10;;;;;;5019850;28;20232;-92
2022/11/02 11:37:58;;;;;;;9.93;2.57;;;13.70;76.60;;;;;;5020257;28;20204;-91
2022/11/02 11:40:25;;;;;;;3.97;1.50;;;13.50;76.40;;;;;;5018680;28;20279;-91
2022/11/02 11:42:53;;;;;;;8.90;2.70;;;13.50;76.80;;;;;;5017849;28;20284;-91
2022/11/02 11:45:24;;;;;;;3.00;1.53;;;13.40;76.20;;;;;;5018507;28;20268;-90
2022/11/02 11:48:14;;;;;;;6.77;1.93;;;13.60;76.30;;;;;;5018563;28;20648;-93
2022/11/02 11:50:46;;;;;;;5.20;1.90;;;13.50;77.60;;;;;;5005420;28;20189;-91
2022/11/02 11:53:12;;;;;;;6.03;2.20;;;13.30;77.90;;;;;;5018451;28;20201;-90
2022/11/02 11:55:47;;;;;;;5.60;1.97;;;13.10;78.70;;;;;;5018702;28;20259;-90
2022/11/02 11:58:23;;;;;;;6.13;1.87;;;13.00;78.20;;;;;;5017985;28;20182;-90
2022/11/02 12:01:24;;;;;;;8.53;2.37;;;13.40;77.60;;;;;;5018017;28;20177;-91
2022/11/02 12:03:55;;;;;;;6.73;2.30;;;13.60;75.90;;;;;;5018762;28;20169;-91
2022/11/02 12:06:54;;;;;;;9.10;2.20;;;13.40;76.20;;;;;;5018099;28;20184;-91
2022/11/02 12:09:59;;;;;;;10.83;2.30;;;13.70;77.20;;;;;;5018953;28;20178;-91
2022/11/02 12:12:37;;;;;;;10.53;2.43;;;13.70;76.40;;;;;;5018625;28;20235;-91
2022/11/02 12:15:51;;;;;;;10.50;2.57;;;13.80;76.80;;;;;;5018478;28;20535;-91
2022/11/02 12:18:32;;;;;;;7.80;1.93;;;13.70;75.50;;;;;;4997118;28;20185;-90
2022/11/02 12:21:45;;;;;;;7.73;2.50;;;13.80;75.20;;;;;;5017833;28;20197;-91
2022/11/02 12:24:39;;;;;;;8.97;2.23;;;13.70;74.90;;;;;;4923399;29;20690;-90
2022/11/02 12:27:44;;;;;;;10.10;2.43;;;13.60;74.60;;;;;;4940421;29;20285;-91
2022/11/02 12:30:13;;;;;;;9.77;2.73;;;13.90;74.80;;;;;;5013200;28;20223;-92
2022/11/02 12:33:03;;;;;;;6.37;2.00;;;13.80;75.00;;;;;;5019622;28;20224;-91
2022/11/02 12:35:49;;;;;;;5.43;1.57;;;13.50;75.00;;;;;;5018334;28;20201;-91
2022/11/02 12:38:21;;;;;;;9.70;2.37;;;13.40;74.20;;;;;;5018031;28;20173;-91
2022/11/02 12:41:19;;;;;;;6.27;2.00;;;13.30;75.70;;;;;;5018294;28;20614;-92
2022/11/02 12:43:53;;;;;;;10.03;2.17;;;13.20;76.00;;;;;;5011188;28;20192;-91
2022/11/02 12:46:35;;;;;;;3.63;1.93;;;13.20;76.20;;;;;;5017620;28;20635;-91
2022/11/02 12:49:28;;;;;;;10.03;2.07;;;13.20;73.30;;;;;;5017385;28;20169;-91
2022/11/02 12:52:18;;;;;;;9.77;2.67;;;13.20;75.00;;;;;;5018892;28;20236;-91
2022/11/02 12:54:51;;;;;;;3.23;2.00;;;13.30;75.00;;;;;;5017534;28;20711;-91
2022/11/02 12:57:22;;;;;;;9.70;2.20;;;13.20;74.40;;;;;;5017190;28;20556;-91
2022/11/02 12:59:56;;;;;;;15.13;3.60;;;13.60;73.70;;;;;;5017092;28;20204;-91
2022/11/02 13:02:43;;;;;;;8.70;2.57;;;13.80;73.00;;;;;;5017320;28;20208;-91
2022/11/02 13:05:21;;;;;;;7.87;2.20;;;14.00;71.20;;;;;;5018029;28;20200;-92
2022/11/02 13:07:57;;;;;;;4.37;2.33;;;14.00;70.80;;;;;;5017985;28;20169;-91
2022/11/02 13:10:32;;;;;;;5.27;2.33;;;13.70;68.80;;;;;;5017443;28;20277;-90
2022/11/02 13:13:01;;;;;;;11.83;2.77;;;13.80;69.20;;;;;;5016503;28;20272;-91
2022/11/02 13:15:30;;;;;;;12.57;3.30;;;13.70;69.60;;;;;;5017684;28;20201;-91
2022/11/02 13:18:00;;;;;;;6.53;2.90;;;13.80;71.40;;;;;;5018726;28;20173;-92
2022/11/02 13:20:43;;;;;;;11.07;2.43;;;13.80;71.00;;;;;;5017558;28;20169;-91